createdAt,value
2018-09-04T00:02:18.533Z,100896.92
2018-09-04T00:04:47.301Z,100889.56
2018-09-04T00:07:19.642Z,100887.93
2018-09-04T00:09:48.808Z,100885.44
2018-09-04T00:12:17.456Z,100883.23
2018-09-04T00:14:46.260Z,100886.73
2018-09-04T00:17:14.878Z,100895.67
2018-09-04T00:19:43.703Z,100898.33
2018-09-04T00:22:12.440Z,100891.50
2018-09-04T00:24:41.117Z,100880.06
2018-09-04T00:27:09.776Z,100875.97
2018-09-04T00:29:38.714Z,100872.16
2018-09-04T00:32:07.645Z,100876.52
2018-09-04T00:34:36.348Z,100870.54
2018-09-04T00:37:05.124Z,100876.20
2018-09-04T00:39:36.708Z,100875.66
2018-09-04T00:42:05.417Z,100877.81
2018-09-04T00:44:34.271Z,100868.00
2018-09-04T00:47:06.691Z,100864.52
2018-09-04T00:49:35.484Z,100863.69
2018-09-04T00:52:04.264Z,100864.25
2018-09-04T00:54:32.994Z,100859.35
2018-09-04T00:57:02.629Z,100865.03
2018-09-04T00:59:34.206Z,100864.98
2018-09-04T01:02:02.915Z,100867.13
2018-09-04T01:04:31.558Z,100872.77
2018-09-04T01:07:00.304Z,100877.91
2018-09-04T01:09:29.069Z,100874.08
2018-09-04T01:11:57.708Z,100870.84
2018-09-04T01:14:26.404Z,100863.52
2018-09-04T01:16:54.936Z,100862.72
2018-09-04T01:19:23.572Z,100863.25
2018-09-04T01:21:52.175Z,100859.98
2018-09-04T01:24:20.835Z,100865.43
2018-09-04T01:26:49.348Z,100860.30
2018-09-04T01:29:18.048Z,100867.34
2018-09-04T01:31:46.680Z,100862.19
2018-09-04T01:34:15.378Z,100860.83
2018-09-04T01:36:43.945Z,100859.20
2018-09-04T01:39:12.579Z,100862.74
2018-09-04T01:41:41.232Z,100861.66
2018-09-04T01:44:09.852Z,100862.19
2018-09-04T01:46:38.401Z,100860.53
2018-09-04T01:49:07.094Z,100861.63
2018-09-04T01:51:35.736Z,100862.45
2018-09-04T01:54:04.300Z,100863.56
2018-09-04T01:56:32.955Z,100866.79
2018-09-04T01:59:01.616Z,100861.61
2018-09-04T02:01:30.323Z,100866.72
2018-09-04T02:03:58.979Z,100865.88
2018-09-04T02:06:27.658Z,100868.00
2018-09-04T02:08:56.340Z,100865.27
2018-09-04T02:11:25.027Z,100864.97
2018-09-04T02:13:53.710Z,100866.33
2018-09-04T02:16:22.315Z,100860.91
2018-09-04T02:18:51.004Z,100856.02
2018-09-04T02:21:19.656Z,100867.13
2018-09-04T02:23:48.206Z,100868.46
2018-09-04T02:26:16.731Z,100862.45
2018-09-04T02:28:45.391Z,100864.61
2018-09-04T02:31:13.905Z,100865.65
2018-09-04T02:33:42.481Z,100864.27
2018-09-04T02:36:11.136Z,100870.72
2018-09-04T02:38:39.696Z,100868.78
2018-09-04T02:41:08.676Z,100871.44
2018-09-04T02:43:37.280Z,100871.89
2018-09-04T02:46:06.036Z,100869.56
2018-09-04T02:48:34.549Z,100864.52
2018-09-04T02:51:03.203Z,100862.18
2018-09-04T02:53:31.862Z,100868.39
2018-09-04T02:56:00.661Z,100870.67
2018-09-04T02:58:29.349Z,100872.11
2018-09-04T03:00:57.971Z,100872.53
2018-09-04T03:03:26.638Z,100878.44
2018-09-04T03:05:55.261Z,100872.69
2018-09-04T03:08:23.795Z,100880.92
2018-09-04T03:10:52.472Z,100878.05
2018-09-04T03:13:21.167Z,100882.22
2018-09-04T03:15:49.787Z,100868.61
2018-09-04T03:18:19.527Z,100872.94
2018-09-04T03:20:48.057Z,100873.47
2018-09-04T03:23:16.809Z,100872.19
2018-09-04T03:25:45.471Z,100870.16
2018-09-04T03:28:14.041Z,100867.16
2018-09-04T03:30:42.821Z,100861.48
2018-09-04T03:33:11.651Z,100863.51
2018-09-04T03:35:40.326Z,100857.84
2018-09-04T03:38:08.873Z,100864.03
2018-09-04T03:40:37.579Z,100862.60
2018-09-04T03:43:07.197Z,100858.77
2018-09-04T03:45:35.942Z,100863.17
2018-09-04T03:48:04.816Z,100860.46
2018-09-04T03:50:33.337Z,100858.33
2018-09-04T03:53:01.960Z,100861.33
2018-09-04T03:55:30.700Z,100856.78
2018-09-04T03:57:59.282Z,100865.73
2018-09-04T04:00:27.897Z,100869.98
2018-09-04T04:02:56.705Z,100870.42
2018-09-04T04:05:25.304Z,100868.55
2018-09-04T04:07:54.038Z,100870.42
2018-09-04T04:10:22.835Z,100865.27
2018-09-04T04:12:51.510Z,100867.19
2018-09-04T04:15:20.133Z,100864.34
2018-09-04T04:17:48.710Z,100865.24
2018-09-04T04:20:17.351Z,100868.89
2018-09-04T04:22:46.555Z,100868.92
2018-09-04T04:25:15.240Z,100871.28
2018-09-04T04:27:43.831Z,100874.33
2018-09-04T04:30:12.474Z,100877.95
2018-09-04T04:32:41.078Z,100877.23
2018-09-04T04:35:09.763Z,100871.67
2018-09-04T04:37:38.304Z,100882.19
2018-09-04T04:40:07.412Z,100879.15
2018-09-04T04:42:36.064Z,100878.66
2018-09-04T04:45:04.802Z,100881.89
2018-09-04T04:47:38.681Z,100885.65
2018-09-04T04:50:07.524Z,100879.11
2018-09-04T04:52:36.177Z,100878.05
2018-09-04T04:55:04.976Z,100873.84
2018-09-04T04:57:33.598Z,100874.02
2018-09-04T05:00:02.239Z,100879.39
2018-09-04T05:02:30.968Z,100879.05
2018-09-04T05:04:59.774Z,100889.58
2018-09-04T05:07:28.450Z,100891.27
2018-09-04T05:09:57.195Z,100890.74
2018-09-04T05:12:25.978Z,100891.13
2018-09-04T05:14:54.709Z,100895.27
2018-09-04T05:17:23.344Z,100896.62
2018-09-04T05:19:51.954Z,100896.73
2018-09-04T05:22:20.630Z,100897.53
2018-09-04T05:24:49.333Z,100903.48
2018-09-04T05:27:18.102Z,100901.25
2018-09-04T05:29:46.871Z,100904.47
2018-09-04T05:32:20.709Z,100900.01
2018-09-04T05:34:49.417Z,100896.69
2018-09-04T05:37:18.213Z,100893.87
2018-09-04T05:39:46.880Z,100895.90
2018-09-04T05:42:20.736Z,100900.40
2018-09-04T05:44:49.457Z,100887.52
2018-09-04T05:47:18.252Z,100893.09
2018-09-04T05:49:46.910Z,100900.81
2018-09-04T05:52:16.477Z,100901.22
2018-09-04T05:54:45.174Z,100901.91
2018-09-04T05:57:13.921Z,100907.42
2018-09-04T05:59:42.597Z,100900.19
2018-09-04T06:02:11.380Z,100901.87
2018-09-04T06:04:40.106Z,100901.38
2018-09-04T06:07:08.787Z,100902.25
2018-09-04T06:12:44.662Z,100906.14
2018-09-04T06:15:13.939Z,100902.67
2018-09-04T06:17:43.171Z,100913.34
2018-09-04T06:20:12.792Z,100912.55
2018-09-04T06:22:41.991Z,100916.97
2018-09-04T06:25:11.459Z,100917.55
2018-09-04T06:27:40.719Z,100915.92
2018-09-04T06:30:10.182Z,100914.04
2018-09-04T06:32:39.441Z,100913.51
2018-09-04T06:35:08.864Z,100921.41
2018-09-04T06:37:38.158Z,100926.85
2018-09-04T06:40:07.668Z,100921.99
2018-09-04T06:42:36.978Z,100928.53
2018-09-04T06:45:06.381Z,100930.22
2018-09-04T06:48:05.783Z,100919.59
2018-09-04T06:50:49.730Z,100927.75
2018-09-04T06:53:19.377Z,100932.37
2018-09-04T06:56:14.478Z,100936.47
2018-09-04T07:02:24.208Z,100936.22
2018-09-04T07:04:53.635Z,100945.75
2018-09-04T07:07:23.025Z,100942.20
2018-09-04T07:10:00.194Z,100935.67
2018-09-04T07:12:30.139Z,100942.20
2018-09-04T07:15:03.979Z,100940.30
2018-09-04T07:17:33.390Z,100942.49
2018-09-04T07:20:04.036Z,100937.84
2018-09-04T07:22:33.541Z,100935.69
2018-09-04T07:25:02.930Z,100935.69
2018-09-04T07:27:33.283Z,100937.30
2018-09-04T07:30:12.581Z,100950.66
2018-09-04T07:32:41.926Z,100953.63
2018-09-04T07:35:11.074Z,100954.20
2018-09-04T07:37:40.672Z,100948.42
2018-09-04T07:40:10.062Z,100953.52
2018-09-04T07:42:39.439Z,100957.29
2018-09-04T07:45:09.719Z,100958.60
2018-09-04T07:47:38.922Z,100942.41
2018-09-04T07:50:09.243Z,100947.73
2018-09-04T07:52:38.590Z,100944.90
2018-09-04T07:55:08.211Z,100948.05
2018-09-04T07:57:37.545Z,100943.30
2018-09-04T08:00:07.639Z,100943.03
2018-09-04T08:02:36.919Z,100944.11
2018-09-04T08:05:06.427Z,100946.61
2018-09-04T08:07:35.738Z,100944.97
2018-09-04T08:10:05.113Z,100947.12
2018-09-04T08:12:34.333Z,100948.16
2018-09-04T08:15:03.656Z,100939.06
2018-09-04T08:17:32.950Z,100947.53
2018-09-04T08:20:02.378Z,100950.88
2018-09-04T08:22:31.711Z,100948.69
2018-09-04T08:25:00.947Z,100949.67
2018-09-04T08:27:30.160Z,100945.77
2018-09-04T08:29:59.491Z,100940.72
2018-09-04T08:32:28.722Z,100952.27
2018-09-04T08:34:57.907Z,100952.66
2018-09-04T08:37:27.249Z,100951.01
2018-09-04T08:39:56.498Z,100952.92
2018-09-04T08:42:25.800Z,100948.34
2018-09-04T08:44:55.171Z,100949.64
2018-09-04T08:47:24.384Z,100954.75
2018-09-04T08:49:53.775Z,100955.69
2018-09-04T08:52:23.034Z,100949.41
2018-09-04T08:54:52.441Z,100941.39
2018-09-04T08:57:21.774Z,100947.70
2018-09-04T08:59:50.978Z,100945.77
2018-09-04T09:02:20.198Z,100951.55
2018-09-04T09:04:49.366Z,100950.04
2018-09-04T09:07:18.691Z,100946.42
2018-09-04T09:09:47.894Z,100942.83
2018-09-04T09:12:17.136Z,100948.22
2018-09-04T09:14:46.346Z,100954.05
2018-09-04T09:17:15.512Z,100957.56
2018-09-04T09:19:44.683Z,100951.16
2018-09-04T09:22:13.899Z,100948.54
2018-09-04T09:24:43.118Z,100948.80
2018-09-04T09:27:13.759Z,100939.95
2018-09-04T09:29:42.965Z,100935.47
2018-09-04T09:32:12.162Z,100936.30
2018-09-04T09:34:41.538Z,100934.78
2018-09-04T09:37:10.869Z,100930.16
2018-09-04T09:39:40.193Z,100933.89
2018-09-04T09:42:12.771Z,100935.06
2018-09-04T09:44:43.958Z,100932.64
2018-09-04T09:47:13.214Z,100931.61
2018-09-04T09:49:42.583Z,100926.31
2018-09-04T09:52:11.860Z,100930.38
2018-09-04T09:54:41.015Z,100928.39
2018-09-04T09:57:10.201Z,100929.02
2018-09-04T09:59:39.487Z,100926.17
2018-09-04T10:02:13.666Z,100937.45
2018-09-04T10:04:43.062Z,100932.44
2018-09-04T10:07:12.415Z,100929.69
2018-09-04T10:09:41.827Z,100933.06
2018-09-04T10:12:11.294Z,100923.72
2018-09-04T10:14:40.538Z,100928.42
2018-09-04T10:17:09.946Z,100926.34
2018-09-04T10:19:39.157Z,100929.60
2018-09-04T10:22:08.481Z,100927.80
2018-09-04T10:24:37.826Z,100927.31
2018-09-04T10:27:07.231Z,100930.05
2018-09-04T10:29:36.441Z,100925.16
2018-09-04T10:32:05.816Z,100924.84
2018-09-04T10:34:34.969Z,100924.05
2018-09-04T10:37:04.263Z,100923.48
2018-09-04T10:39:38.649Z,100920.47
2018-09-04T10:42:07.977Z,100919.69
2018-09-04T10:44:37.222Z,100924.98
2018-09-04T10:47:06.516Z,100924.16
2018-09-04T10:49:35.735Z,100924.76
2018-09-04T10:52:04.998Z,100918.53
2018-09-04T10:54:34.399Z,100913.63
2018-09-04T10:57:03.646Z,100916.84
2018-09-04T10:59:32.882Z,100915.37
2018-09-04T11:02:02.166Z,100914.25
2018-09-04T11:04:31.534Z,100913.50
2018-09-04T11:07:00.710Z,100904.47
2018-09-04T11:09:30.185Z,100902.75
2018-09-04T11:11:59.606Z,100911.48
2018-09-04T11:14:28.774Z,100897.05
2018-09-04T11:16:58.114Z,100892.43
2018-09-04T11:19:27.418Z,100893.05
2018-09-04T11:21:57.846Z,100888.65
2018-09-04T11:24:27.078Z,100894.39
2018-09-04T11:26:56.401Z,100892.48
2018-09-04T11:29:25.590Z,100891.91
2018-09-04T11:31:54.974Z,100893.91
2018-09-04T11:34:24.129Z,100885.50
2018-09-04T11:36:53.454Z,100881.70
2018-09-04T11:39:22.750Z,100885.16
2018-09-04T11:41:52.122Z,100879.94
2018-09-04T11:44:21.305Z,100885.81
2018-09-04T11:46:50.570Z,100878.23
2018-09-04T11:49:19.785Z,100869.23
2018-09-04T11:51:49.098Z,100875.52
2018-09-04T11:54:18.417Z,100878.33
2018-09-04T11:56:47.761Z,100869.20
2018-09-04T11:59:17.060Z,100873.72
2018-09-04T12:01:49.849Z,100877.09
2018-09-04T12:04:19.179Z,100868.98
2018-09-04T12:06:48.407Z,100875.89
2018-09-04T12:09:17.843Z,100876.00
2018-09-04T12:11:51.227Z,100881.52
2018-09-04T12:14:20.955Z,100872.16
2018-09-04T12:16:50.647Z,100876.48
2018-09-04T12:19:19.899Z,100881.27
2018-09-04T12:21:49.377Z,100868.75
2018-09-04T12:24:18.649Z,100881.98
2018-09-04T12:26:48.005Z,100876.73
2018-09-04T12:29:17.199Z,100875.10
2018-09-04T12:31:46.574Z,100872.66
2018-09-04T12:34:15.926Z,100880.11
2018-09-04T12:36:45.135Z,100879.24
2018-09-04T12:39:14.346Z,100879.89
2018-09-04T12:41:43.692Z,100874.92
2018-09-04T12:44:12.942Z,100876.41
2018-09-04T12:46:42.251Z,100865.70
2018-09-04T12:49:11.489Z,100870.52
2018-09-04T12:51:40.924Z,100864.53
2018-09-04T12:54:10.114Z,100865.27
2018-09-04T12:56:39.398Z,100865.23
2018-09-04T12:59:08.674Z,100869.50
2018-09-04T13:01:37.988Z,100867.07
2018-09-04T13:04:07.233Z,100871.31
2018-09-04T13:06:36.466Z,100872.07
2018-09-04T13:09:07.171Z,100864.81
2018-09-04T13:11:36.437Z,100855.25
2018-09-04T13:14:06.335Z,100852.00
2018-09-04T13:16:35.682Z,100840.93
2018-09-04T13:19:04.974Z,100838.11
2018-09-04T13:21:34.205Z,100841.88
2018-09-04T13:24:03.449Z,100840.44
2018-09-04T13:26:32.805Z,100836.85
2018-09-04T13:29:02.035Z,100830.81
2018-09-04T13:31:31.308Z,100830.03
2018-09-04T13:34:00.720Z,100828.39
2018-09-04T13:36:30.205Z,100819.57
2018-09-04T13:38:59.367Z,100823.15
2018-09-04T13:41:32.666Z,100824.14
2018-09-04T13:44:02.011Z,100828.59
2018-09-04T13:46:31.293Z,100824.86
2018-09-04T13:49:00.645Z,100818.81
2018-09-04T13:51:29.886Z,100825.27
2018-09-04T13:53:59.353Z,100816.41
2018-09-04T13:56:28.530Z,100815.44
2018-09-04T13:58:57.845Z,100821.38
2018-09-04T14:01:27.189Z,100819.28
2018-09-04T14:03:56.583Z,100810.81
2018-09-04T14:06:25.832Z,100821.05
2018-09-04T14:08:55.086Z,100808.02
2018-09-04T14:11:24.443Z,100808.84
2018-09-04T14:13:53.748Z,100814.97
2018-09-04T14:16:24.968Z,100811.61
2018-09-04T14:18:54.163Z,100813.36
2018-09-04T14:21:23.387Z,100811.55
2018-09-04T14:23:52.679Z,100810.06
2018-09-04T14:26:21.937Z,100812.44
2018-09-04T14:29:06.422Z,100809.05
2018-09-04T14:31:20.514Z,100819.16
2018-09-04T14:33:49.858Z,100812.53
2018-09-04T14:36:19.181Z,100805.87
2018-09-04T14:38:48.406Z,100804.30
2018-09-04T14:41:17.769Z,100807.47
2018-09-04T14:43:48.015Z,100804.56
2018-09-04T14:46:17.262Z,100805.84
2018-09-04T14:48:46.650Z,100807.13
2018-09-04T14:51:16.017Z,100809.22
2018-09-04T14:53:46.473Z,100803.91
2018-09-04T14:56:15.674Z,100805.11
2018-09-04T14:58:44.942Z,100806.34
2018-09-04T15:01:14.139Z,100803.35
2018-09-04T15:03:43.594Z,100802.59
2018-09-04T15:06:12.853Z,100807.16
2018-09-04T15:08:42.293Z,100808.33
2018-09-04T15:11:11.566Z,100830.45
2018-09-04T15:13:41.108Z,100833.89
2018-09-04T15:16:10.371Z,100838.14
2018-09-04T15:18:39.694Z,100839.28
2018-09-04T15:21:08.990Z,100837.83
2018-09-04T15:23:38.293Z,100842.20
2018-09-04T15:26:07.830Z,100839.67
2018-09-04T15:28:36.999Z,100835.73
2018-09-04T15:31:06.563Z,100838.20
2018-09-04T15:33:35.942Z,100842.87
2018-09-04T15:36:05.334Z,100840.70
2018-09-04T15:38:34.632Z,100831.69
2018-09-04T15:42:19.498Z,100835.94
2018-09-04T15:44:48.797Z,100838.20
2018-09-04T15:47:17.971Z,100837.58
2018-09-04T15:49:48.522Z,100839.44
2018-09-04T15:52:18.246Z,100840.36
2018-09-04T15:54:47.521Z,100838.10
2018-09-04T15:57:16.767Z,100838.03
2018-09-04T15:59:45.947Z,100830.94
2018-09-04T16:02:15.214Z,100825.38
2018-09-04T16:04:44.534Z,100830.25
2018-09-04T16:07:13.822Z,100829.65
2018-09-04T16:09:43.287Z,100831.20
2018-09-04T16:12:12.514Z,100828.55
2018-09-04T16:14:41.869Z,100827.97
2018-09-04T16:17:11.327Z,100829.47
2018-09-04T16:19:40.601Z,100832.70
2018-09-04T16:22:09.821Z,100834.19
2018-09-04T16:24:38.969Z,100835.89
2018-09-04T16:27:08.213Z,100828.12
2018-09-04T16:29:37.517Z,100831.75
2018-09-04T16:32:06.902Z,100836.66
2018-09-04T16:34:36.242Z,100833.61
2018-09-04T16:37:05.534Z,100838.67
2018-09-04T16:39:34.883Z,100840.13
2018-09-04T16:42:04.079Z,100858.03
2018-09-04T16:44:33.348Z,100856.98
2018-09-04T16:47:02.638Z,100857.25
2018-09-04T16:49:31.846Z,100870.02
2018-09-04T16:52:01.849Z,100883.10
2018-09-04T16:54:31.280Z,100874.61
2018-09-04T16:57:00.576Z,100871.33
2018-09-04T16:59:30.003Z,100884.11
2018-09-04T17:01:59.160Z,100884.73
2018-09-04T17:04:28.459Z,100880.64
2018-09-04T17:06:57.731Z,100879.56
2018-09-04T17:09:26.974Z,100871.36
2018-09-04T17:11:56.260Z,100869.46
2018-09-04T17:14:25.399Z,100875.48
2018-09-04T17:16:54.745Z,100879.03
2018-09-04T17:19:24.081Z,100883.66
2018-09-04T17:21:53.465Z,100880.11
2018-09-04T17:24:22.654Z,100888.27
2018-09-04T17:26:52.034Z,100885.30
2018-09-04T17:29:21.289Z,100890.20
2018-09-04T17:31:50.485Z,100893.71
2018-09-04T17:34:19.753Z,100883.39
2018-09-04T17:36:48.989Z,100882.56
2018-09-04T17:39:18.276Z,100884.73
2018-09-04T17:41:47.630Z,100886.91
2018-09-04T17:44:16.814Z,100892.64
2018-09-04T17:46:46.068Z,100890.17
2018-09-04T17:49:15.304Z,100892.89
2018-09-04T17:51:44.602Z,100899.40
2018-09-04T17:54:13.882Z,100901.29
2018-09-04T17:56:43.178Z,100896.91
2018-09-04T17:59:12.442Z,100898.55
2018-09-04T18:01:41.664Z,100902.63
2018-09-04T18:04:10.858Z,100905.89
2018-09-04T18:06:40.015Z,100912.42
2018-09-04T18:09:09.567Z,100910.75
2018-09-04T18:11:38.717Z,100910.19
2018-09-04T18:14:08.054Z,100912.06
2018-09-04T18:16:37.337Z,100914.45
2018-09-04T18:19:06.662Z,100913.64
2018-09-04T18:21:36.102Z,100908.72
2018-09-04T18:24:05.506Z,100911.14
2018-09-04T18:26:34.764Z,100905.14
2018-09-04T18:29:03.990Z,100916.02
2018-09-04T18:31:33.360Z,100910.25
2018-09-04T18:34:02.559Z,100915.40
2018-09-04T18:36:31.785Z,100915.09
2018-09-04T18:39:01.058Z,100922.40
2018-09-04T18:41:30.415Z,100923.47
2018-09-04T18:43:59.701Z,100930.49
2018-09-04T18:46:28.958Z,100921.48
2018-09-04T18:48:58.292Z,100932.92
2018-09-04T18:51:27.747Z,100935.89
2018-09-04T18:53:57.726Z,100940.24
2018-09-04T18:56:27.145Z,100933.71
2018-09-04T18:58:56.419Z,100941.81
2018-09-04T19:01:25.682Z,100942.34
2018-09-04T19:03:55.045Z,100946.43
2018-09-04T19:06:24.294Z,100947.50
2018-09-04T19:08:53.538Z,100951.53
2018-09-04T19:11:22.846Z,100949.03
2018-09-04T19:13:51.982Z,100951.69
2018-09-04T19:16:21.175Z,100949.73
2018-09-04T19:18:50.498Z,100953.29
2018-09-04T19:21:19.865Z,100955.72
2018-09-04T19:23:49.236Z,100957.59
2018-09-04T19:26:18.482Z,100962.40
2018-09-04T19:28:47.890Z,100966.05
2018-09-04T19:31:17.161Z,100962.17
2018-09-04T19:33:46.496Z,100958.59
2018-09-04T19:36:15.696Z,100956.86
2018-09-04T19:38:44.966Z,100953.77
2018-09-04T19:41:14.183Z,100956.14
2018-09-04T19:43:43.498Z,100961.45
2018-09-04T19:46:12.641Z,100961.09
2018-09-04T19:48:41.891Z,100964.36
2018-09-04T19:51:11.088Z,100965.95
2018-09-04T19:53:40.330Z,100975.68
2018-09-04T19:56:09.687Z,100976.45
2018-09-04T19:58:38.998Z,100979.45
2018-09-04T20:01:08.240Z,100984.94
2018-09-04T20:03:37.571Z,100988.51
2018-09-04T20:06:06.741Z,100990.69
2018-09-04T20:08:36.003Z,100988.15
2018-09-04T20:11:05.170Z,100988.09
2018-09-04T20:13:34.360Z,100986.60
2018-09-04T20:16:03.681Z,100990.03
2018-09-04T20:18:32.914Z,100990.73
2018-09-04T20:21:02.235Z,100991.45
2018-09-04T20:23:31.527Z,100992.44
2018-09-04T20:26:00.713Z,100994.84
2018-09-04T20:28:29.966Z,100994.51
2018-09-04T20:30:59.112Z,100994.44
2018-09-04T20:33:28.298Z,100999.25
2018-09-04T20:35:57.597Z,101000.60
2018-09-04T20:38:26.733Z,100997.86
2018-09-04T20:40:55.950Z,100996.50
2018-09-04T20:43:25.386Z,101000.23
2018-09-04T20:45:54.521Z,100992.28
2018-09-04T20:48:23.666Z,100994.91
2018-09-04T20:50:53.007Z,100993.87
2018-09-04T20:53:22.214Z,100999.02
2018-09-04T20:55:51.513Z,101005.11
2018-09-04T20:58:31.978Z,101006.07
2018-09-04T21:01:11.870Z,101005.60
2018-09-04T21:03:52.053Z,101003.59
2018-09-04T21:06:32.014Z,101005.43
2018-09-04T21:09:07.265Z,101009.45
2018-09-04T21:11:36.506Z,101012.41
2018-09-04T21:14:05.846Z,101024.59
2018-09-04T21:16:35.093Z,101015.12
2018-09-04T21:19:04.338Z,101018.09
2018-09-04T21:21:33.618Z,101018.96
2018-09-04T21:24:02.841Z,101016.83
2018-09-04T21:26:32.048Z,101015.61
2018-09-04T21:29:01.588Z,101017.78
2018-09-04T21:31:30.926Z,101011.76
2018-09-04T21:34:00.038Z,101014.30
2018-09-04T21:36:29.416Z,101014.11
2018-09-04T21:38:58.741Z,101009.97
2018-09-04T21:41:28.012Z,101007.39
2018-09-04T21:43:57.284Z,101006.25
2018-09-04T21:46:26.494Z,101011.23
2018-09-04T21:48:55.701Z,101012.33
2018-09-04T21:51:24.983Z,101010.75
2018-09-04T21:53:54.064Z,101011.42
2018-09-04T21:56:23.318Z,101012.21
2018-09-04T21:58:52.526Z,101015.19
2018-09-04T22:01:21.720Z,101016.50
2018-09-04T22:03:51.018Z,101010.84
2018-09-04T22:06:20.183Z,101018.19
2018-09-04T22:08:49.654Z,101022.41
2018-09-04T22:11:18.914Z,101023.05
2018-09-04T22:13:48.134Z,101031.89
2018-09-04T22:16:17.457Z,101032.62
2018-09-04T22:18:46.855Z,101034.80
2018-09-04T22:21:16.269Z,101028.14
2018-09-04T22:23:45.362Z,101033.65
2018-09-04T22:26:14.556Z,101035.62
2018-09-04T22:28:43.659Z,101041.34
2018-09-04T22:31:13.019Z,101037.86
2018-09-04T22:33:42.263Z,101041.14
2018-09-04T22:36:11.489Z,101037.13
2018-09-04T22:38:40.619Z,101034.17
2018-09-04T22:41:09.765Z,101037.13
2018-09-04T22:43:39.008Z,101037.86
2018-09-04T22:46:08.470Z,101033.65
2018-09-04T22:48:37.716Z,101038.55
2018-09-04T22:51:12.030Z,101035.47
2018-09-04T22:53:41.201Z,101040.05
2018-09-04T22:56:10.507Z,101030.59
2018-09-04T22:58:39.658Z,101027.78
2018-09-04T23:01:08.776Z,101024.45
2018-09-04T23:03:37.908Z,101030.79
2018-09-04T23:06:07.193Z,101029.79
2018-09-04T23:08:36.342Z,101028.46
2018-09-04T23:11:05.572Z,101021.65
2018-09-04T23:13:34.794Z,101026.02
2018-09-04T23:16:04.106Z,101022.78
2018-09-04T23:18:33.203Z,101024.66
2018-09-04T23:21:02.342Z,101021.72
2018-09-04T23:23:31.574Z,101015.48
2018-09-04T23:26:00.858Z,101014.54
2018-09-04T23:28:29.945Z,101020.41
2018-09-04T23:30:59.333Z,101018.20
2018-09-04T23:33:28.607Z,101020.84
2018-09-04T23:35:57.830Z,101020.84
2018-09-04T23:38:26.991Z,101017.84
2018-09-04T23:40:56.210Z,101018.06
2018-09-04T23:43:25.415Z,101019.02
2018-09-04T23:45:54.668Z,101016.02
2018-09-04T23:48:23.911Z,101016.02
2018-09-04T23:50:53.311Z,101018.80
2018-09-04T23:53:22.545Z,101016.06
2018-09-04T23:55:51.741Z,101014.73
2018-09-04T23:58:21.087Z,101016.48
